Time;durP1;ratioP1;P1;durP2;ratioP2;P2;SDS_P1;SDS_P2;PMS_P1;PMS_P2;Temp;Humidity;BMP_temperature;BMP_pressure;BME280_temperature;BME280_humidity;BME280_pressure;Samples;Min_cycle;Max_cycle;Signal;HPM_P1;HPM_P2
2022/05/22 00:02:07;;;;;;;3.28;1.80;;;11.00;99.90;;;;;;5075388;28;20055;-65
2022/05/22 00:04:33;;;;;;;3.40;1.88;;;11.00;99.90;;;;;;5091079;28;20063;-65
2022/05/22 00:06:58;;;;;;;4.53;2.33;;;10.90;99.90;;;;;;5091105;28;20082;-64
2022/05/22 00:09:24;;;;;;;4.18;2.40;;;10.90;99.90;;;;;;5092217;28;20052;-66
2022/05/22 00:11:50;;;;;;;6.18;2.70;;;10.90;99.90;;;;;;5091143;28;20471;-64
2022/05/22 00:14:16;;;;;;;6.60;3.25;;;10.90;99.90;;;;;;5091785;28;20493;-64
2022/05/22 00:16:46;;;;;;;5.97;2.78;;;10.80;99.90;;;;;;5093135;28;20035;-64
2022/05/22 00:19:38;;;;;;;4.00;2.63;;;10.80;99.90;;;;;;5088787;28;20047;-64
2022/05/22 00:22:05;;;;;;;5.63;2.85;;;10.80;99.90;;;;;;5081318;28;20568;-64
2022/05/22 00:24:32;;;;;;;6.97;2.80;;;10.80;99.90;;;;;;5092759;28;20043;-64
2022/05/22 00:27:00;;;;;;;4.60;2.47;;;10.80;99.90;;;;;;5090744;28;20050;-64
2022/05/22 00:29:26;;;;;;;5.03;2.85;;;10.70;99.90;;;;;;5069194;28;20036;-64
2022/05/22 00:31:52;;;;;;;6.28;2.92;;;10.70;99.90;;;;;;5083482;28;20526;-64
2022/05/22 00:34:18;;;;;;;5.25;2.60;;;10.70;99.90;;;;;;5092545;28;20077;-64
2022/05/22 00:36:43;;;;;;;4.57;2.25;;;10.70;99.90;;;;;;5090749;28;20138;-64
2022/05/22 00:39:09;;;;;;;3.78;2.00;;;10.70;99.90;;;;;;5091837;28;20046;-64
2022/05/22 00:41:35;;;;;;;2.40;1.88;;;10.60;99.90;;;;;;5087130;28;20038;-65
2022/05/22 00:44:03;;;;;;;3.72;2.05;;;10.60;99.90;;;;;;5090861;28;20497;-65
2022/05/22 00:46:32;;;;;;;4.13;2.08;;;10.50;99.90;;;;;;5089840;28;20078;-64
2022/05/22 00:49:21;;;;;;;5.07;2.58;;;10.50;99.90;;;;;;5089618;28;20036;-64
2022/05/22 00:51:55;;;;;;;3.92;2.47;;;10.50;99.90;;;;;;5088260;28;20455;-63
2022/05/22 00:54:36;;;;;;;5.03;2.70;;;10.50;99.90;;;;;;5070703;28;20048;-66
2022/05/22 00:57:06;;;;;;;7.68;3.20;;;10.50;99.90;;;;;;5070662;28;20040;-64
2022/05/22 00:59:45;;;;;;;7.50;3.30;;;10.50;99.90;;;;;;5082533;28;20188;-65
2022/05/22 01:02:15;;;;;;;6.78;3.03;;;10.50;99.90;;;;;;5084573;28;20044;-65
2022/05/22 01:04:41;;;;;;;6.90;3.25;;;10.50;99.90;;;;;;5063379;28;20390;-65
2022/05/22 01:07:07;;;;;;;10.13;4.00;;;10.50;99.90;;;;;;5073829;28;20035;-65
2022/05/22 01:09:34;;;;;;;9.95;4.22;;;10.40;99.90;;;;;;5084575;28;20382;-65
2022/05/22 01:12:06;;;;;;;8.20;4.30;;;10.50;99.90;;;;;;5091781;28;20036;-65
2022/05/22 01:14:33;;;;;;;8.90;4.30;;;10.40;99.90;;;;;;5090907;28;20035;-65
2022/05/22 01:17:04;;;;;;;7.90;3.80;;;10.40;99.90;;;;;;5090172;28;20044;-66
2022/05/22 01:19:30;;;;;;;7.43;3.97;;;10.40;99.90;;;;;;5084795;28;20050;-65
2022/05/22 01:22:05;;;;;;;9.82;4.35;;;10.40;99.90;;;;;;5089513;28;20036;-65
2022/05/22 01:24:31;;;;;;;9.02;5.03;;;10.40;99.90;;;;;;5090474;28;20040;-65
2022/05/22 01:27:02;;;;;;;8.38;4.60;;;10.30;99.90;;;;;;5086055;28;20032;-65
2022/05/22 01:29:28;;;;;;;8.25;4.50;;;10.30;99.90;;;;;;5091117;28;20058;-65
2022/05/22 01:31:53;;;;;;;9.25;4.65;;;10.30;99.90;;;;;;5090240;28;20568;-65
2022/05/22 01:34:19;;;;;;;10.13;5.00;;;10.30;99.90;;;;;;5087241;28;20123;-65
2022/05/22 01:36:45;;;;;;;9.18;4.50;;;10.30;99.90;;;;;;5082792;28;20513;-65
2022/05/22 01:39:11;;;;;;;7.72;3.70;;;10.30;99.90;;;;;;5086181;28;20105;-65
2022/05/22 01:41:37;;;;;;;8.45;3.63;;;10.30;99.90;;;;;;5085835;28;20049;-65
2022/05/22 01:44:03;;;;;;;5.82;3.38;;;10.20;99.90;;;;;;5079172;28;20031;-65
2022/05/22 01:46:28;;;;;;;5.22;3.90;;;10.10;99.90;;;;;;5081353;28;20028;-65
2022/05/22 01:48:55;;;;;;;5.00;2.90;;;10.10;99.90;;;;;;5081364;28;20279;-64
2022/05/22 01:51:21;;;;;;;5.28;3.30;;;10.10;99.90;;;;;;5082612;28;20115;-65
2022/05/22 01:53:47;;;;;;;6.68;3.55;;;10.10;99.90;;;;;;5083762;28;20174;-65
2022/05/22 01:56:15;;;;;;;7.45;3.95;;;10.00;99.90;;;;;;5089249;28;20032;-65
2022/05/22 01:58:41;;;;;;;10.68;4.53;;;10.00;99.90;;;;;;5085575;28;20101;-65
2022/05/22 02:01:08;;;;;;;9.77;5.32;;;10.10;99.90;;;;;;5070397;28;20036;-65
2022/05/22 02:03:34;;;;;;;10.35;4.95;;;10.10;99.90;;;;;;5088688;28;20043;-65
2022/05/22 02:06:00;;;;;;;14.30;5.70;;;10.10;99.90;;;;;;5081494;28;20486;-65
2022/05/22 02:08:26;;;;;;;12.75;5.32;;;10.10;99.90;;;;;;5102156;28;20058;-65
2022/05/22 02:11:02;;;;;;;10.07;5.30;;;10.10;99.90;;;;;;5110331;28;20044;-65
2022/05/22 02:13:33;;;;;;;9.07;5.18;;;10.10;99.90;;;;;;5094498;28;20364;-65
2022/05/22 02:15:58;;;;;;;10.57;5.78;;;10.00;99.90;;;;;;5088230;28;20051;-65
2022/05/22 02:18:24;;;;;;;12.07;5.80;;;10.00;99.90;;;;;;5089731;28;20040;-65
2022/05/22 02:20:51;;;;;;;9.20;5.38;;;10.00;99.90;;;;;;5087207;28;20491;-65
2022/05/22 02:23:18;;;;;;;8.30;5.40;;;10.00;99.90;;;;;;5080932;28;20044;-65
2022/05/22 02:25:49;;;;;;;8.13;5.28;;;10.00;99.90;;;;;;5090824;28;20399;-65
2022/05/22 02:28:17;;;;;;;12.55;5.28;;;10.00;99.90;;;;;;5089631;28;20051;-65
2022/05/22 02:30:45;;;;;;;10.25;5.43;;;10.00;99.90;;;;;;5091131;28;20132;-65
2022/05/22 02:33:11;;;;;;;8.32;4.95;;;9.90;99.90;;;;;;5088094;28;20052;-65
2022/05/22 02:35:38;;;;;;;10.60;5.43;;;9.90;99.90;;;;;;5084752;28;20512;-64
2022/05/22 02:38:04;;;;;;;10.63;5.38;;;9.90;99.90;;;;;;5083288;28;20040;-65
2022/05/22 02:40:31;;;;;;;8.07;5.18;;;9.90;99.90;;;;;;5072611;28;20036;-65
2022/05/22 02:42:58;;;;;;;10.15;5.80;;;9.90;99.90;;;;;;5082292;28;20059;-65
2022/05/22 02:45:25;;;;;;;10.13;4.60;;;9.80;99.90;;;;;;5090923;28;20028;-65
2022/05/22 02:47:52;;;;;;;8.80;4.97;;;9.80;99.90;;;;;;5090304;28;20047;-64
2022/05/22 02:50:21;;;;;;;7.20;4.70;;;9.90;99.90;;;;;;5085946;28;20047;-64
2022/05/22 02:52:47;;;;;;;6.28;4.18;;;9.80;99.90;;;;;;5086376;28;20040;-65
2022/05/22 02:55:13;;;;;;;7.13;4.03;;;9.80;99.90;;;;;;5090361;28;20075;-65
2022/05/22 02:57:40;;;;;;;8.07;4.32;;;9.80;99.90;;;;;;5090086;28;20523;-65
2022/05/22 03:00:16;;;;;;;6.43;4.30;;;9.70;99.90;;;;;;5090462;28;20096;-65
2022/05/22 03:02:41;;;;;;;9.10;4.43;;;9.70;99.90;;;;;;5089488;28;20048;-65
2022/05/22 03:05:07;;;;;;;6.03;4.03;;;9.70;99.90;;;;;;5079150;28;20043;-65
2022/05/22 03:07:36;;;;;;;7.78;3.67;;;9.70;99.90;;;;;;5088663;28;20047;-65
2022/05/22 03:10:04;;;;;;;6.32;3.50;;;9.70;99.90;;;;;;5087049;28;20044;-65
2022/05/22 03:12:30;;;;;;;4.93;3.00;;;9.60;99.90;;;;;;5092882;28;20036;-65
2022/05/22 03:14:57;;;;;;;5.40;3.20;;;9.60;99.90;;;;;;5076438;28;20051;-65
2022/05/22 03:17:24;;;;;;;3.75;2.65;;;9.60;99.90;;;;;;5093823;28;20462;-65
2022/05/22 03:19:50;;;;;;;5.03;3.40;;;9.50;99.90;;;;;;5088241;28;20040;-65
2022/05/22 03:22:15;;;;;;;4.85;2.92;;;9.50;99.90;;;;;;5092807;28;20425;-65
2022/05/22 03:24:41;;;;;;;3.50;2.60;;;9.50;99.90;;;;;;5092980;28;20050;-65
2022/05/22 03:27:12;;;;;;;6.22;3.10;;;9.50;99.90;;;;;;5091137;28;20071;-65
2022/05/22 03:29:39;;;;;;;5.50;3.38;;;9.50;99.90;;;;;;5109471;28;20119;-65
2022/05/22 03:32:06;;;;;;;6.25;3.33;;;9.40;99.90;;;;;;5094148;28;20541;-65
2022/05/22 03:34:32;;;;;;;5.10;3.47;;;9.40;99.90;;;;;;5090621;28;20075;-65
2022/05/22 03:36:57;;;;;;;5.93;3.40;;;9.40;99.90;;;;;;5092468;28;20079;-65
2022/05/22 03:39:23;;;;;;;5.07;3.33;;;9.40;99.90;;;;;;5084802;28;20075;-65
2022/05/22 03:41:50;;;;;;;6.13;3.40;;;9.40;99.90;;;;;;5094256;28;20239;-65
2022/05/22 03:44:15;;;;;;;3.35;2.88;;;9.40;99.90;;;;;;5092915;28;20071;-65
2022/05/22 03:46:41;;;;;;;5.22;3.15;;;9.40;99.90;;;;;;5089585;28;20071;-65
2022/05/22 03:49:07;;;;;;;3.88;3.00;;;9.40;99.90;;;;;;5082497;28;20044;-65
2022/05/22 03:51:34;;;;;;;6.13;2.85;;;9.40;99.90;;;;;;5093302;28;20044;-65
2022/05/22 03:54:00;;;;;;;3.78;2.70;;;9.40;99.90;;;;;;5093894;28;20040;-65
2022/05/22 03:56:25;;;;;;;3.67;2.80;;;9.40;99.90;;;;;;5089531;28;20035;-65
2022/05/22 03:58:51;;;;;;;5.28;2.80;;;9.40;99.90;;;;;;5092449;28;20115;-65
2022/05/22 04:01:17;;;;;;;3.38;2.55;;;9.40;99.90;;;;;;5091844;28;20036;-64
2022/05/22 04:03:43;;;;;;;4.13;2.40;;;9.40;99.90;;;;;;5090416;28;20177;-65
2022/05/22 04:06:10;;;;;;;3.28;2.40;;;9.40;99.90;;;;;;5083370;28;20043;-65
2022/05/22 04:08:36;;;;;;;3.95;2.53;;;9.30;99.90;;;;;;5083417;28;20047;-65
2022/05/22 04:11:11;;;;;;;3.97;2.50;;;9.40;99.90;;;;;;5093415;28;20453;-65
2022/05/22 04:13:38;;;;;;;4.10;2.70;;;9.40;99.90;;;;;;5092136;28;20111;-65
2022/05/22 04:16:03;;;;;;;4.18;2.50;;;9.30;99.90;;;;;;5084766;28;20032;-65
2022/05/22 04:18:29;;;;;;;4.45;2.60;;;9.40;99.90;;;;;;5078887;28;20110;-65
2022/05/22 04:20:55;;;;;;;5.28;2.88;;;9.40;99.90;;;;;;5072896;28;20071;-65
2022/05/22 04:26:07;;;;;;;6.53;3.30;;;9.40;99.90;;;;;;5031005;28;20051;-65
2022/05/22 04:28:33;;;;;;;5.85;3.30;;;9.40;99.90;;;;;;5072466;28;20498;-64
2022/05/22 04:30:59;;;;;;;5.43;2.67;;;9.40;99.90;;;;;;5071857;28;20051;-65
2022/05/22 04:33:26;;;;;;;6.30;2.70;;;9.40;99.90;;;;;;5075865;28;20044;-64
2022/05/22 04:35:52;;;;;;;3.40;2.90;;;9.40;99.90;;;;;;5092915;28;20051;-65
2022/05/22 04:38:18;;;;;;;4.75;3.00;;;9.40;99.90;;;;;;5080143;28;20110;-65
2022/05/22 04:41:00;;;;;;;4.75;3.42;;;9.50;99.90;;;;;;5072620;28;20036;-64
2022/05/22 04:43:27;;;;;;;4.53;2.83;;;9.40;99.90;;;;;;5089730;28;20047;-65
2022/05/22 04:45:53;;;;;;;3.72;3.13;;;9.50;99.90;;;;;;5091231;28;20115;-65
2022/05/22 04:48:23;;;;;;;5.97;3.15;;;9.50;99.90;;;;;;5091623;28;20038;-65
2022/05/22 04:50:50;;;;;;;5.38;3.10;;;9.50;99.90;;;;;;5080859;28;20043;-65
2022/05/22 04:53:19;;;;;;;5.75;3.47;;;9.50;99.90;;;;;;5087964;28;20120;-65
2022/05/22 04:55:45;;;;;;;6.45;3.72;;;9.50;99.90;;;;;;5086495;28;20157;-65
2022/05/22 04:58:12;;;;;;;8.35;4.20;;;9.60;99.90;;;;;;5084820;28;20784;-65
2022/05/22 05:00:38;;;;;;;6.82;4.00;;;9.60;99.90;;;;;;5082514;28;20059;-64
2022/05/22 05:03:04;;;;;;;6.25;4.32;;;9.60;99.90;;;;;;5090958;28;20044;-65
2022/05/22 05:05:29;;;;;;;9.13;5.13;;;9.60;99.90;;;;;;5091191;28;20039;-65
2022/05/22 05:07:55;;;;;;;9.75;5.32;;;9.70;99.90;;;;;;5091808;28;20119;-65
2022/05/22 05:10:21;;;;;;;10.20;5.63;;;9.70;99.90;;;;;;5084672;28;20479;-65
2022/05/22 05:12:48;;;;;;;12.55;5.65;;;9.70;99.90;;;;;;5083428;28;20482;-65
2022/05/22 05:15:17;;;;;;;12.15;5.80;;;9.80;99.90;;;;;;5088033;28;20498;-65
2022/05/22 05:17:43;;;;;;;13.60;6.85;;;9.80;99.90;;;;;;5086327;28;20564;-65
2022/05/22 05:20:16;;;;;;;12.57;7.35;;;9.80;99.90;;;;;;5082224;28;20372;-65
2022/05/22 05:22:42;;;;;;;12.73;7.03;;;9.80;99.90;;;;;;5091657;28;20036;-65
2022/05/22 05:25:08;;;;;;;13.70;7.85;;;9.90;99.90;;;;;;5086084;28;20041;-65
2022/05/22 05:27:34;;;;;;;20.50;7.95;;;9.90;99.90;;;;;;5071031;28;20047;-64
2022/05/22 05:29:59;;;;;;;17.38;8.60;;;10.00;99.90;;;;;;5088675;28;20036;-65
2022/05/22 05:32:25;;;;;;;15.15;8.43;;;10.10;99.90;;;;;;5084227;28;20183;-65
2022/05/22 05:34:57;;;;;;;17.15;7.97;;;10.10;99.90;;;;;;5090147;28;20486;-65
2022/05/22 05:37:23;;;;;;;15.05;7.80;;;10.10;99.90;;;;;;5093465;28;20044;-64
2022/05/22 05:39:49;;;;;;;17.75;7.72;;;10.20;99.90;;;;;;5084052;28;20037;-65
2022/05/22 05:42:14;;;;;;;20.60;8.95;;;10.20;99.90;;;;;;5095008;28;20051;-65
2022/05/22 05:44:40;;;;;;;16.67;8.95;;;10.30;99.90;;;;;;5094359;28;20191;-65
2022/05/22 05:47:08;;;;;;;20.75;9.18;;;10.30;99.90;;;;;;5093895;28;20040;-66
2022/05/22 05:49:33;;;;;;;17.20;8.20;;;10.40;99.90;;;;;;5092793;28;20032;-66
2022/05/22 05:52:01;;;;;;;15.93;7.47;;;10.40;99.90;;;;;;5089722;28;20044;-64
2022/05/22 05:54:26;;;;;;;18.27;7.65;;;10.50;99.90;;;;;;5095606;28;20032;-65
2022/05/22 05:56:52;;;;;;;12.15;7.90;;;10.60;99.90;;;;;;5084558;28;20047;-66
2022/05/22 05:59:17;;;;;;;16.80;8.18;;;10.60;99.90;;;;;;5093910;28;20044;-65
2022/05/22 06:01:43;;;;;;;12.90;7.20;;;10.70;99.90;;;;;;5086290;28;20036;-66
2022/05/22 06:04:08;;;;;;;16.92;7.18;;;10.70;99.90;;;;;;5092709;28;20410;-65
2022/05/22 06:06:34;;;;;;;14.70;7.00;;;10.80;99.90;;;;;;5086243;28;20471;-65
2022/05/22 06:09:00;;;;;;;13.40;6.85;;;10.80;99.90;;;;;;5093532;28;20074;-65
2022/05/22 06:11:26;;;;;;;15.38;7.35;;;10.90;99.90;;;;;;5093999;28;20035;-65
2022/05/22 06:13:51;;;;;;;15.68;7.22;;;10.90;99.90;;;;;;5093889;28;20047;-65
2022/05/22 06:16:17;;;;;;;18.75;7.50;;;11.00;99.90;;;;;;5090293;28;20055;-65
2022/05/22 06:18:43;;;;;;;18.33;7.43;;;11.00;99.90;;;;;;5081333;28;20040;-63
2022/05/22 06:21:11;;;;;;;15.55;7.38;;;11.10;99.90;;;;;;5088692;28;20111;-63
2022/05/22 06:23:38;;;;;;;11.20;6.45;;;11.10;99.90;;;;;;5089318;28;20028;-64
2022/05/22 06:26:05;;;;;;;14.15;7.80;;;11.20;99.90;;;;;;5089648;28;20261;-63
2022/05/22 06:28:31;;;;;;;16.80;8.05;;;11.20;99.90;;;;;;5090474;28;20043;-63
2022/05/22 06:30:56;;;;;;;19.95;8.52;;;11.30;99.90;;;;;;5090975;28;20044;-63
2022/05/22 06:33:23;;;;;;;19.92;8.48;;;11.40;99.90;;;;;;5081582;28;20032;-66
2022/05/22 06:35:49;;;;;;;16.08;8.30;;;11.40;99.90;;;;;;5090625;28;20420;-63
2022/05/22 06:41:08;;;;;;;22.17;8.55;;;11.50;99.90;;;;;;5081935;28;20044;-65
2022/05/22 06:43:33;;;;;;;18.48;8.52;;;11.60;99.90;;;;;;5089903;28;20402;-64
2022/05/22 06:45:59;;;;;;;16.42;8.23;;;11.70;99.90;;;;;;5094001;28;20036;-63
2022/05/22 06:48:25;;;;;;;18.90;8.52;;;11.80;99.90;;;;;;5085369;28;20072;-64
2022/05/22 06:50:50;;;;;;;20.05;7.97;;;11.90;99.90;;;;;;5088943;28;20048;-66
2022/05/22 06:53:16;;;;;;;16.48;7.90;;;11.90;99.90;;;;;;5094778;28;20042;-63
2022/05/22 06:55:42;;;;;;;16.67;7.57;;;12.00;99.90;;;;;;5094830;28;20035;-63
2022/05/22 06:58:08;;;;;;;15.70;6.63;;;12.10;99.90;;;;;;5090431;28;20482;-63
2022/05/22 07:00:34;;;;;;;17.50;7.65;;;12.10;99.90;;;;;;5087646;28;20032;-63
2022/05/22 07:02:59;;;;;;;15.40;7.32;;;12.20;99.90;;;;;;5078765;28;20044;-63
2022/05/22 07:05:26;;;;;;;15.90;7.43;;;12.20;99.90;;;;;;5085045;28;20070;-65
2022/05/22 07:07:52;;;;;;;14.05;6.38;;;12.30;99.90;;;;;;5092850;28;20410;-63
2022/05/22 07:10:17;;;;;;;17.60;7.13;;;12.40;99.90;;;;;;5092100;28;20042;-63
2022/05/22 07:12:44;;;;;;;15.73;6.43;;;12.40;99.90;;;;;;5086946;28;20089;-66
2022/05/22 07:15:10;;;;;;;14.70;7.03;;;12.50;99.90;;;;;;5089332;28;20203;-64
2022/05/22 07:17:37;;;;;;;18.63;7.15;;;12.50;99.90;;;;;;5072636;28;20571;-63
2022/05/22 07:20:04;;;;;;;18.75;6.47;;;12.60;99.90;;;;;;5090036;28;20040;-65
2022/05/22 07:22:30;;;;;;;14.32;6.07;;;12.60;99.90;;;;;;5092945;28;20040;-63
2022/05/22 07:24:56;;;;;;;17.02;6.32;;;12.70;99.90;;;;;;5088696;28;20047;-66
2022/05/22 07:27:21;;;;;;;18.27;7.03;;;12.80;99.90;;;;;;5085400;28;20063;-63
2022/05/22 07:29:47;;;;;;;14.43;6.07;;;12.80;99.90;;;;;;5086245;28;20089;-63
2022/05/22 07:32:13;;;;;;;20.55;5.97;;;12.80;99.90;;;;;;5092154;28;20083;-63
2022/05/22 07:34:40;;;;;;;13.13;6.53;;;12.90;99.90;;;;;;5085172;28;20143;-63
2022/05/22 07:37:09;;;;;;;14.70;5.95;;;13.00;99.90;;;;;;5061392;28;20067;-67
2022/05/22 07:39:34;;;;;;;14.75;5.07;;;13.00;99.90;;;;;;5077732;28;20048;-63
2022/05/22 07:42:00;;;;;;;18.45;4.85;;;13.10;99.90;;;;;;5082777;28;20426;-63
2022/05/22 07:44:25;;;;;;;12.25;4.35;;;13.20;99.90;;;;;;5092036;28;20036;-63
2022/05/22 07:46:51;;;;;;;16.90;4.40;;;13.30;99.90;;;;;;5092537;28;20040;-64
2022/05/22 07:52:08;;;;;;;15.20;4.97;;;13.40;99.90;;;;;;5090330;28;20048;-66
2022/05/22 07:54:36;;;;;;;14.75;4.15;;;13.50;99.90;;;;;;5092401;28;20043;-63
2022/05/22 07:57:02;;;;;;;13.93;4.00;;;13.60;99.90;;;;;;5091705;28;20036;-63
2022/05/22 07:59:28;;;;;;;15.40;4.97;;;13.60;99.90;;;;;;5092722;28;20040;-63
2022/05/22 08:01:54;;;;;;;13.95;4.82;;;13.70;99.90;;;;;;5092037;28;20044;-63
2022/05/22 08:04:20;;;;;;;10.52;4.07;;;13.80;99.90;;;;;;5083346;28;20036;-63
2022/05/22 08:06:45;;;;;;;15.30;5.00;;;13.80;99.90;;;;;;5093625;28;20172;-64
2022/05/22 08:09:11;;;;;;;11.50;4.28;;;13.90;99.90;;;;;;5084534;28;20040;-64
2022/05/22 08:11:37;;;;;;;10.98;4.40;;;14.00;99.90;;;;;;5090757;28;20039;-65
2022/05/22 08:14:02;;;;;;;11.13;3.80;;;14.10;99.90;;;;;;5092711;28;20044;-63
2022/05/22 08:16:28;;;;;;;13.20;3.92;;;14.20;99.90;;;;;;5093242;28;20028;-63
2022/05/22 08:18:53;;;;;;;11.80;3.88;;;14.30;99.90;;;;;;5092687;28;20517;-63
2022/05/22 08:21:19;;;;;;;11.63;3.88;;;14.40;99.90;;;;;;5085141;28;20493;-66
2022/05/22 08:23:44;;;;;;;14.07;3.95;;;14.60;99.90;;;;;;5091428;28;20508;-63
2022/05/22 08:26:10;;;;;;;12.80;3.70;;;14.70;99.90;;;;;;5092999;28;20089;-63
2022/05/22 08:28:36;;;;;;;9.40;3.20;;;15.00;99.90;;;;;;5092275;28;20105;-64
2022/05/22 08:31:03;;;;;;;12.68;3.00;;;15.20;99.90;;;;;;5091677;28;20067;-65
2022/05/22 08:33:28;;;;;;;8.75;2.60;;;15.50;99.90;;;;;;5092691;28;20064;-64
2022/05/22 08:35:54;;;;;;;12.05;2.97;;;15.70;99.90;;;;;;5081399;28;20078;-64
2022/05/22 08:38:19;;;;;;;9.50;3.40;;;16.00;99.90;;;;;;5090644;28;20493;-66
2022/05/22 08:40:53;;;;;;;11.10;3.38;;;16.30;99.90;;;;;;5091445;28;20440;-67
2022/05/22 08:43:34;;;;;;;9.93;3.42;;;16.50;99.90;;;;;;5084340;28;20042;-64
2022/05/22 08:46:07;;;;;;;9.63;3.47;;;16.60;99.90;;;;;;5092731;28;20074;-64
2022/05/22 08:48:40;;;;;;;10.85;3.58;;;16.70;99.90;;;;;;5086457;28;20040;-64
2022/05/22 08:51:15;;;;;;;9.77;3.70;;;16.80;99.90;;;;;;5090889;28;20345;-64
2022/05/22 08:53:50;;;;;;;9.88;3.83;;;17.10;99.90;;;;;;5092455;28;20490;-64
2022/05/22 08:59:20;;;;;;;12.60;3.75;;;17.30;99.90;;;;;;5090140;28;20044;-64
2022/05/22 09:01:56;;;;;;;7.85;2.80;;;17.50;99.90;;;;;;5092306;28;20078;-64
2022/05/22 09:04:35;;;;;;;8.05;3.13;;;17.70;99.90;;;;;;5092362;28;20043;-64
2022/05/22 09:07:22;;;;;;;10.43;2.80;;;17.70;99.90;;;;;;5089836;28;20055;-64
2022/05/22 09:09:57;;;;;;;11.40;3.00;;;17.90;99.90;;;;;;5080629;28;20097;-67
2022/05/22 09:12:58;;;;;;;10.38;2.70;;;18.10;99.90;;;;;;5062639;28;20046;-65
2022/05/22 09:15:45;;;;;;;8.90;2.70;;;18.30;99.90;;;;;;5070761;28;20060;-67
2022/05/22 09:18:32;;;;;;;10.55;2.83;;;18.30;99.90;;;;;;5079240;28;20123;-64
2022/05/22 09:21:11;;;;;;;10.63;3.03;;;18.50;99.90;;;;;;5079041;28;20040;-65
2022/05/22 09:23:49;;;;;;;7.68;2.97;;;18.60;99.90;;;;;;5076426;28;20043;-65
2022/05/22 09:26:47;;;;;;;12.48;3.08;;;18.80;99.90;;;;;;5078331;28;20032;-67
2022/05/22 09:29:56;;;;;;;10.93;2.97;;;18.90;99.90;;;;;;5054605;28;20047;-67
2022/05/22 09:32:48;;;;;;;10.43;3.05;;;19.00;99.90;;;;;;5077282;28;20075;-64
2022/05/22 09:35:30;;;;;;;8.05;2.88;;;19.10;99.70;;;;;;5090133;28;20093;-64
2022/05/22 09:38:19;;;;;;;8.43;2.67;;;19.20;99.90;;;;;;5079681;28;20045;-65
2022/05/22 09:41:15;;;;;;;7.90;2.63;;;19.20;99.40;;;;;;5059006;28;20051;-66
2022/05/22 09:43:50;;;;;;;8.75;2.53;;;19.20;99.70;;;;;;5032477;28;20498;-64
2022/05/22 09:46:54;;;;;;;10.90;3.30;;;19.30;99.90;;;;;;5076955;28;20538;-67
2022/05/22 09:49:33;;;;;;;7.97;2.83;;;19.40;99.90;;;;;;5080276;28;20037;-68
2022/05/22 09:52:13;;;;;;;9.77;2.65;;;19.50;99.90;;;;;;5078254;28;20045;-64
2022/05/22 09:55:05;;;;;;;8.27;2.50;;;19.50;99.90;;;;;;5082994;28;20054;-64
2022/05/22 09:57:54;;;;;;;7.40;2.83;;;19.70;99.90;;;;;;5071813;28;20068;-64
2022/05/22 10:00:38;;;;;;;6.90;2.50;;;19.70;97.80;;;;;;5077236;28;20124;-64
2022/05/22 10:03:19;;;;;;;9.73;2.55;;;19.60;98.70;;;;;;5081120;28;20032;-67
2022/05/22 10:06:10;;;;;;;7.73;2.47;;;19.50;98.70;;;;;;5073817;28;20098;-65
2022/05/22 10:09:04;;;;;;;7.03;2.27;;;19.50;98.60;;;;;;5088057;28;20334;-67
2022/05/22 10:11:53;;;;;;;10.32;2.80;;;19.50;98.10;;;;;;5076791;28;20776;-64
2022/05/22 10:14:48;;;;;;;9.05;2.50;;;19.60;97.00;;;;;;5076186;28;20044;-65
2022/05/22 10:17:36;;;;;;;6.47;2.50;;;19.60;97.30;;;;;;5054801;28;20043;-64
2022/05/22 10:20:26;;;;;;;7.38;2.28;;;19.50;95.80;;;;;;5078446;28;20124;-64
2022/05/22 10:23:13;;;;;;;6.63;2.10;;;19.50;96.10;;;;;;5061639;28;20122;-64
2022/05/22 10:26:13;;;;;;;8.38;2.58;;;19.60;96.60;;;;;;5072308;28;20055;-64
2022/05/22 10:28:55;;;;;;;8.13;2.47;;;19.70;95.80;;;;;;5073950;28;20048;-64
2022/05/22 10:31:27;;;;;;;8.40;2.35;;;19.90;96.40;;;;;;5068408;28;20094;-64
2022/05/22 10:34:05;;;;;;;6.60;2.63;;;20.10;96.70;;;;;;5075700;28;20049;-65
2022/05/22 10:36:40;;;;;;;9.40;2.47;;;20.20;96.20;;;;;;5073211;28;20047;-64
2022/05/22 10:39:12;;;;;;;7.80;2.72;;;20.40;95.10;;;;;;5074733;28;20115;-64
2022/05/22 10:44:40;;;;;;;10.02;2.40;;;20.80;94.70;;;;;;5089541;28;20131;-67
2022/05/22 10:47:07;;;;;;;8.05;2.20;;;20.90;94.00;;;;;;5088151;28;20101;-65
2022/05/22 10:49:37;;;;;;;6.32;2.13;;;21.00;93.60;;;;;;5090391;28;20502;-64
2022/05/22 10:52:04;;;;;;;6.82;2.03;;;21.40;93.90;;;;;;5082587;28;20036;-64
2022/05/22 10:54:34;;;;;;;7.95;2.30;;;21.70;93.40;;;;;;5079980;28;20439;-68
2022/05/22 10:57:16;;;;;;;6.57;2.08;;;22.10;93.30;;;;;;5071609;28;20398;-65
2022/05/22 10:59:42;;;;;;;5.80;2.28;;;22.40;92.90;;;;;;5088484;28;20040;-66
2022/05/22 11:02:22;;;;;;;5.03;2.00;;;22.50;91.90;;;;;;5085905;28;20105;-64
2022/05/22 11:04:49;;;;;;;6.63;2.50;;;22.60;89.80;;;;;;5090764;28;20101;-64
2022/05/22 11:07:30;;;;;;;7.90;2.33;;;22.70;90.70;;;;;;5072095;28;20050;-65
2022/05/22 11:10:04;;;;;;;9.63;2.30;;;22.70;86.50;;;;;;5090120;28;20075;-66
2022/05/22 11:12:30;;;;;;;5.57;1.85;;;22.60;85.80;;;;;;5086705;28;20406;-65
2022/05/22 11:15:24;;;;;;;6.78;1.90;;;22.60;84.80;;;;;;5081796;28;20040;-64
2022/05/22 11:18:03;;;;;;;7.55;2.00;;;22.60;81.80;;;;;;5079441;28;20498;-65
2022/05/22 11:20:30;;;;;;;7.30;2.00;;;22.70;82.80;;;;;;5071365;28;20047;-64
2022/05/22 11:23:00;;;;;;;6.78;2.00;;;22.90;84.20;;;;;;5085995;28;20050;-64
2022/05/22 11:25:41;;;;;;;6.55;2.00;;;23.00;82.50;;;;;;5090207;28;20047;-64
2022/05/22 11:28:25;;;;;;;5.40;2.05;;;23.20;80.80;;;;;;5082634;28;20044;-67
2022/05/22 11:31:09;;;;;;;6.78;2.20;;;23.30;82.00;;;;;;5082487;28;20044;-65
2022/05/22 11:33:40;;;;;;;6.50;2.00;;;23.40;76.50;;;;;;5087055;28;20490;-64
2022/05/22 11:36:28;;;;;;;6.70;1.90;;;23.30;75.60;;;;;;5088492;28;20047;-67
2022/05/22 11:39:37;;;;;;;6.40;1.90;;;23.30;74.90;;;;;;5086631;28;20055;-66
2022/05/22 11:42:20;;;;;;;7.50;2.00;;;23.50;74.20;;;;;;5093778;28;20521;-67
2022/05/22 11:45:07;;;;;;;6.18;2.08;;;23.70;72.40;;;;;;5088172;28;20043;-67
2022/05/22 11:47:54;;;;;;;4.80;1.80;;;23.70;73.20;;;;;;5092043;28;20044;-67
2022/05/22 11:51:14;;;;;;;6.65;1.73;;;23.90;74.10;;;;;;5082610;28;20173;-67
2022/05/22 11:53:51;;;;;;;5.38;1.85;;;23.90;70.60;;;;;;5027562;28;20116;-67
2022/05/22 11:56:29;;;;;;;4.57;1.70;;;23.90;72.90;;;;;;5082940;28;20119;-65
2022/05/22 11:59:02;;;;;;;5.93;1.80;;;24.00;72.70;;;;;;5064761;28;20452;-66
2022/05/22 12:01:32;;;;;;;4.20;1.55;;;24.00;73.50;;;;;;5102326;28;20036;-67
2022/05/22 12:04:29;;;;;;;4.28;1.80;;;23.90;73.00;;;;;;5099316;28;20036;-67
2022/05/22 12:07:38;;;;;;;3.97;1.58;;;23.70;72.00;;;;;;5073556;28;20044;-67
2022/05/22 12:10:44;;;;;;;8.20;1.98;;;23.50;71.60;;;;;;5038511;28;20050;-67
2022/05/22 12:13:25;;;;;;;7.82;2.25;;;23.20;73.10;;;;;;5082474;28;20115;-67
2022/05/22 12:16:03;;;;;;;4.80;1.90;;;23.00;74.30;;;;;;5075970;28;20044;-67
2022/05/22 12:18:53;;;;;;;7.03;1.98;;;22.70;71.80;;;;;;5077091;28;20045;-67
2022/05/22 12:21:39;;;;;;;7.57;2.00;;;22.40;72.20;;;;;;5073405;28;20056;-67
2022/05/22 12:24:19;;;;;;;6.50;1.80;;;22.40;72.20;;;;;;5078673;28;20076;-66
2022/05/22 12:26:45;;;;;;;5.90;2.00;;;22.50;73.80;;;;;;5062793;28;20123;-65
2022/05/22 12:29:24;;;;;;;5.20;1.80;;;22.70;74.40;;;;;;5092813;28;20767;-66
2022/05/22 12:31:57;;;;;;;4.95;2.00;;;22.90;74.00;;;;;;5095214;28;20395;-66
2022/05/22 12:34:51;;;;;;;8.73;2.08;;;22.90;72.80;;;;;;5093260;28;20394;-66
2022/05/22 12:37:32;;;;;;;6.75;2.03;;;22.90;70.70;;;;;;5070734;28;20040;-66
2022/05/22 12:40:12;;;;;;;4.43;1.85;;;22.80;70.80;;;;;;5090463;28;20127;-67
2022/05/22 12:42:44;;;;;;;8.02;2.60;;;22.70;70.60;;;;;;5079227;28;20040;-68
2022/05/22 12:45:10;;;;;;;7.88;2.40;;;22.70;70.10;;;;;;5077003;28;20040;-67
2022/05/22 12:47:45;;;;;;;6.10;1.92;;;22.70;70.80;;;;;;5082899;28;20039;-67
2022/05/22 12:50:24;;;;;;;5.65;2.17;;;22.60;71.30;;;;;;5080033;28;20586;-67
2022/05/22 12:52:53;;;;;;;5.30;1.80;;;22.90;71.40;;;;;;5085225;28;20067;-67
2022/05/22 12:55:33;;;;;;;6.07;1.85;;;23.00;71.40;;;;;;5079904;28;20093;-67
2022/05/22 12:58:03;;;;;;;6.60;1.90;;;23.20;71.30;;;;;;5082084;28;20040;-67
2022/05/22 13:00:40;;;;;;;4.90;2.05;;;23.30;70.50;;;;;;5089385;28;20640;-67
2022/05/22 13:03:13;;;;;;;4.43;1.75;;;23.30;67.80;;;;;;5080258;28;20547;-67
2022/05/22 13:05:40;;;;;;;5.07;1.83;;;23.20;68.40;;;;;;5081531;28;20048;-65
2022/05/22 13:08:39;;;;;;;8.10;1.90;;;23.30;67.80;;;;;;5080490;28;20383;-64
2022/05/22 13:11:13;;;;;;;6.78;1.90;;;23.40;69.50;;;;;;5082003;28;21489;-66
2022/05/22 13:13:48;;;;;;;4.90;1.70;;;23.60;70.00;;;;;;5079617;28;20384;-65
2022/05/22 13:16:28;;;;;;;4.18;1.60;;;23.70;69.40;;;;;;5085980;28;20086;-67
2022/05/22 13:18:55;;;;;;;4.13;1.70;;;23.80;69.30;;;;;;5073985;28;20121;-65
2022/05/22 13:21:35;;;;;;;4.43;1.48;;;24.00;69.10;;;;;;5081265;28;20040;-65
2022/05/22 13:24:16;;;;;;;6.25;2.00;;;24.10;69.90;;;;;;5071554;28;20036;-67